Tiempo atmosférico en la estación meteorológica de Cieza, Murcia (265 m.)



Fecha
DESCASC
Temp. máxima en grados centígrados (hora)
DESCASC
Temp. mínima en grados centígrados (hora)
DESCASC
Temp. media en grados centígrados
DESCASC
Racha de viento máxima en m/sg (hora)
DESCASC
Velocidad máxima media en intervalos de 10 minutos(hora)
DESCASC
Precipitaciones diarias en mm
DESCASC
Precipitaciones de 00:00 a 06:00 en mm
DESCASC
Precipitaciones de 06:00 a 12:00 en mm
DESCASC
Precipitaciones de 12:00 a 18:00 en mm
DESCASC
Precipitaciones de 18:00 a 24:00 en mm
DESCASC
05-04-2020 18.3 (15:30) 6.6 (08:10) 12.4 8.89 (16:10) 5 (17:50) 0 0 0 0 0
04-04-2020 18.7 (16:20) 6 (06:00) 12.4 9.72 (17:00) 6.11 (17:00) 0 0 0 0 0
03-04-2020 19.5 (15:10) 8 (07:30) 13.8 9.72 (20:00) 5.83 (18:10) 0 0 0 0 0
02-04-2020 19.2 (16:30) 6.5 (00:00) 12.9 11.67 (17:20) 8.33 (17:40) 1 0.4 0 0.1 0.5
01-04-2020 21 (16:10) 9.4 (00:00) 15.2 7.5 (17:50) 4.17 (17:50) 18.4 0 0 3 15.4
31-03-2020 16.8 (18:30) 9.4 (00:00) 13.1 7.78 (20:10) 5.28 (00:50) 2.3 0 2.3 0 0
30-03-2020 17.6 (14:00) 7.4 (00:00) 12.5 12.78 (17:00) 7.5 (16:50) 0.2 0 0 0 0.2
29-03-2020 21.3 (18:20) 3.8 (00:00) 12.5 6.39 (21:10) 3.61 (21:30) 0 0 0 0 0
28-03-2020 16.5 (17:30) 4.9 (00:00) 10.7 5.83 (09:20) 3.61 (09:00) 7.5 7.5 0 0 0
27-03-2020 9.8 (00:10) 7.2 (00:00) 8.5 7.78 (14:50) 5 (14:50) 5.9 0 0.3 0.7 4.9
26-03-2020 18.2 (15:40) 6.7 (00:00) 12.5 11.67 (14:00) 7.22 (14:00) 0.8 0.7 0 0.1 0
25-03-2020 15.1 (15:30) 6.4 (00:00) 10.8 9.72 (19:50) 6.39 (19:30) 2.1 0 0 0 2.1
24-03-2020 11.8 (16:10) 9.3 (00:00) 10.6 7.5 (19:20) 3.89 (19:20) 32.1 19.6 11.4 1.1 0
23-03-2020 15.9 (14:40) 8.4 (00:00) 12.1 11.67 (16:40) 7.5 (16:40) 3 0 0.2 0.2 2.6
22-03-2020 12.1 (12:30) 5.9 (05:00) 9 6.39 (15:00) 4.44 (17:30) 0.8 0 0 0.8 0
21-03-2020 14.9 (12:10) 7.6 (00:00) 11.2 7.22 (15:10) 4.72 (15:10) 18 0 0 16.9 1.1
20-03-2020 15.8 (16:50) 6.5 (00:00) 11.2 5.83 (20:40) 4.17 (20:50) 0.3 0 0 0 0.3
19-03-2020 18 (14:10) 7 (00:00) 12.5 11.11 (17:00) 6.67 (17:30) 0 0 0 0 0
18-03-2020 18.9 (13:20) 9.4 (00:00) 14.1 6.39 (19:20) 3.89 (16:00) 0 0 0 0 0
17-03-2020 16.3 (15:00) 6 (00:00) 11.1 5.83 (20:20) 3.33 (07:20) 0 0 0 0 0
16-03-2020 12.9 (00:00) 5.4 (00:00) 9.1 8.33 (11:00) 4.72 (00:10) 7.1 0.6 1.5 5 0
15-03-2020 20 (14:50) 10.7 (00:00) 15.3 10.56 (17:10) 7.22 (17:20) 0 0 0 0 0
14-03-2020 22.1 (16:10) 6.4 (00:00) 14.3 8.89 (18:00) 6.39 (18:00) 0 0 0 0 0
13-03-2020 23.5 (14:50) 9.1 (04:40) 16.3 11.11 (15:30) 7.22 (15:30) 0 0 0 0 0
12-03-2020 27.4 (15:50) 8.9 (00:00) 18.1 8.33 (18:40) 5.28 (18:50) 0 0 0 0 0
11-03-2020 30.5 (16:40) 9.1 (00:00) 19.8 8.33 (18:10) 5.56 (17:20) 0 0 0 0 0
10-03-2020 25.5 (15:20) 10.4 (00:00) 17.9 7.78 (17:50) 5.28 (17:40) 0 0 0 0 0
09-03-2020 23.8 (16:10) 12.1 (00:00) 17.9 10.28 (15:10) 5 (10:00) 0 0 0 0 0

Gráficas

Temp. máximas Temp. mínimas Temp. medias Precipitaciones Rachas de viento máximas Velocidades máximas media en intervalos de 10 minutos

Datos horarios

Fecha y hora oficial Temperatura (ºC) Velocidad del viento (km/h) Dirección del viento Racha (km/h) Dirección de racha Precipitación (mm) Presión (hPa) Tendencia (hPa) Humedad (%)
2020-04-07 23:00:00 12.5 13 Sudeste 24 Sudeste 0 -- -- 81
2020-04-07 22:00:00 13 16 Sudeste 26 Sudeste 0 -- -- 75
2020-04-07 21:00:00 13.9 17 Sudeste 29 Sudeste 0 -- -- 67
2020-04-07 20:00:00 15.5 20 Sudeste 29 Sudeste 0 -- -- 54
2020-04-07 19:00:00 17.8 18 Sudeste 30 Sudeste 0 -- -- 42
2020-04-07 18:00:00 19.1 14 Sudeste 32 Sudeste 0 -- -- 41
2020-04-07 17:00:00 19.6 15 Sudeste 30 Este 0 -- -- 44
2020-04-07 16:00:00 19.2 15 Sudeste 28 Sudeste 0 -- -- 46
2020-04-07 15:00:00 19.1 15 Sudeste 28 Sudeste 0 -- -- 45
2020-04-07 14:00:00 18.6 13 Sudeste 27 Sudeste 0 -- -- 45
2020-04-07 13:00:00 17.3 13 Sudeste 21 Sudeste 0 -- -- 50
2020-04-07 12:00:00 16.4 9 Sudeste 19 Sudeste 0 -- -- 56
2020-04-07 11:00:00 14.4 8 Sudeste 24 Sudeste 0 -- -- 72
2020-04-07 10:00:00 12.8 6 Sudeste 12 Sudeste 0 -- -- 79
2020-04-07 09:00:00 10.5 0 Calma 6 Este 0 -- -- 89
2020-04-07 08:00:00 9 0 Calma 6 Este 0 -- -- 92
2020-04-07 07:00:00 9.6 0 Calma 6 Nordeste 0 -- -- 90
2020-04-07 06:00:00 9.7 0 Calma 5 Nordeste 0 -- -- 93
2020-04-07 05:00:00 9.8 0 Calma -- -- 0 -- -- 93
2020-04-07 04:00:00 10.4 0 Calma 5 Este 0 -- -- 92
2020-04-07 03:00:00 10.9 0 Calma 11 Sudeste 0 -- -- 90
2020-04-07 02:00:00 11.8 5 Sudeste 11 Sudeste 0 -- -- 90
2020-04-07 01:00:00 12.1 5 Sudeste 15 Sudeste 0 -- -- 87
2020-04-07 00:00:00 12.6 8 Sudeste 19 Sudeste 0 -- -- 83
2020-04-06 23:00:00 12.8 13 Sudeste 21 Sudeste 0 -- -- 82
2020-04-06 22:00:00 13.2 15 Sudeste 29 Este 0 -- -- 79
2020-04-06 21:00:00 14 21 Sudeste 36 Sudeste 0 -- -- 71
2020-04-06 20:00:00 15.7 20 Sudeste 31 Sudeste 0 -- -- 61
2020-04-06 19:00:00 17.8 18 Sudeste 29 Este 0 -- -- 57
2020-04-06 18:00:00 19.4 16 Sudeste 26 Sudeste 0 -- -- 52
2020-04-06 17:00:00 19.7 15 Sudeste 28 Sudeste 0 -- -- 49
2020-04-06 16:00:00 19.6 13 Sudeste 24 Sudeste 0 -- -- 51
2020-04-06 15:00:00 18.1 10 Sudeste 23 Sudeste 0 -- -- 53
2020-04-06 14:00:00 17.8 9 Sudeste 22 Este 0 -- -- 53
2020-04-06 13:00:00 17.4 6 Sudeste 16 Sudeste 0 -- -- 56
2020-04-06 12:00:00 16.2 6 Este 13 Este 0 -- -- 62
2020-04-06 11:00:00 14 4 Este 9 Sudeste 0 -- -- 70
2020-04-06 10:00:00 11.8 0 Calma 6 Este 0 -- -- 79
2020-04-06 09:00:00 9.5 0 Calma 4 Este 0 -- -- 90
2020-04-06 08:00:00 8.4 0 Calma 7 Nordeste 0 -- -- 93
2020-04-06 07:00:00 8.4 0 Calma 7 Nordeste 0 -- -- 93
2020-04-06 06:00:00 8.7 0 Calma 5 Sudeste 0 -- -- 92
2020-04-06 05:00:00 8.9 0 Calma 5 Nordeste 0 -- -- 93
2020-04-06 04:00:00 9.2 0 Calma 5 Sudeste 0 -- -- 90
2020-04-06 03:00:00 9.5 0 Calma 7 Este 0 -- -- 89
2020-04-06 02:00:00 10.6 6 Sudeste 10 Sudeste 0 -- -- 87
2020-04-06 01:00:00 11.1 6 Este 16 Este 0 -- -- 85
2020-04-06 00:00:00 11.3 9 Sudeste 19 Sudeste 0 -- -- 83
2020-04-05 23:00:00 11.5 12 Sudeste 21 Sudeste 0 -- -- 81
2020-04-05 22:00:00 12.3 12 Sudeste 20 Sudeste 0 -- -- 76
2020-04-05 21:00:00 13.1 14 Sudeste 25 Sudeste 0 -- -- 70
2020-04-05 20:00:00 14.5 16 Sudeste 28 Sudeste 0 -- -- 61
2020-04-05 19:00:00 16.1 18 Sudeste 29 Sudeste 0 -- -- 56
2020-04-05 18:00:00 16.9 18 Sudeste 30 Sudeste 0 -- -- 55
2020-04-05 17:00:00 17 17 Sudeste 32 Sudeste 0 -- -- 53
2020-04-05 16:00:00 17.8 17 Sudeste 31 Sudeste 0 -- -- 53
2020-04-05 15:00:00 17.3 17 Sudeste 28 Sudeste 0 -- -- 51
2020-04-05 14:00:00 16.2 15 Sudeste 27 Sudeste 0 -- -- 52
2020-04-05 13:00:00 15.9 13 Este 25 Sudeste 0 -- -- 55
2020-04-05 12:00:00 15.3 11 Sudeste 21 Este 0 -- -- 57
2020-04-05 11:00:00 12.6 0 Calma 8 Oeste 0 -- -- 76
2020-04-05 10:00:00 9.6 3 Noroeste 8 Oeste 0 -- -- 85
2020-04-05 09:00:00 7.8 0 Calma 3 Noroeste 0 -- -- 90
2020-04-05 08:00:00 6.7 0 Calma 6 Norte 0 -- -- 88
2020-04-05 07:00:00 7.5 0 Calma 5 Norte 0 -- -- 89
2020-04-05 06:00:00 7.7 0 Calma 5 Este 0 -- -- 90
2020-04-05 05:00:00 8 0 Calma -- -- 0 -- -- 90
2020-04-05 04:00:00 9.2 0 Calma -- -- 0 -- -- 88
2020-04-05 03:00:00 10.8 0 Calma 12 Sudeste 0 -- -- 85
2020-04-05 02:00:00 11.4 6 Sudeste 13 Sudeste 0 -- -- 83
2020-04-05 01:00:00 11.7 9 Sudeste 16 Sudeste 0 -- -- 81
2020-04-05 00:00:00 11.8 10 Sudeste 18 Sudeste 0 -- -- 82
2020-04-04 23:00:00 11.9 12 Sudeste 24 Sudeste 0 -- -- 83
2020-04-04 22:00:00 12.1 12 Sudeste 24 Este 0 -- -- 81
2020-04-04 21:00:00 12.7 13 Sudeste 32 Este 0 -- -- 75
2020-04-04 20:00:00 13.6 19 Sudeste 30 Sudeste 0 -- -- 66
2020-04-04 19:00:00 14.6 15 Este 30 Este 0 -- -- 61
2020-04-04 18:00:00 15.2 18 Sudeste 33 Sudeste 0 -- -- 56
2020-04-04 17:00:00 16.7 22 Sudeste 35 Sudeste 0 -- -- 50
2020-04-04 16:00:00 18.3 19 Sudeste 33 Sudeste 0 -- -- 45
2020-04-04 15:00:00 18 17 Sudeste 30 Este 0 -- -- 49
2020-04-04 14:00:00 16.3 16 Sudeste 29 Este 0 -- -- 52
2020-04-04 13:00:00 15.7 15 Sudeste 26 Este 0 -- -- 58
2020-04-04 12:00:00 13.9 13 Sudeste 22 Sudeste 0 -- -- 65
2020-04-04 11:00:00 11.9 5 Sudeste 14 Sudeste 0 -- -- 74
2020-04-04 10:00:00 8 5 Oeste 11 Oeste 0 -- -- 88
2020-04-04 09:00:00 6.7 5 Oeste 9 Noroeste 0 -- -- 93
2020-04-04 08:00:00 6.8 5 Oeste 8 Noroeste 0 -- -- 93
2020-04-04 07:00:00 7.4 0 Calma -- -- 0 -- -- 93
2020-04-04 06:00:00 6.1 0 Calma -- -- 0 -- -- 91
2020-04-04 05:00:00 6.9 0 Calma 5 Este 0 -- -- 89
2020-04-04 04:00:00 7.6 0 Calma 7 Nordeste 0 -- -- 89
2020-04-04 03:00:00 7.7 0 Calma 7 Este 0 -- -- 89
2020-04-04 02:00:00 8.3 4 Este 8 Este 0 -- -- 87
2020-04-04 01:00:00 9.2 2 Este 17 Sudeste 0 -- -- 82
2020-04-04 00:00:00 10.6 11 Sudeste 18 Sudeste 0 -- -- 78
2020-04-03 23:00:00 11.1 12 Sudeste 26 Sudeste 0 -- -- 75
2020-04-03 22:00:00 11.9 16 Sudeste 25 Sudeste 0 -- -- 67
2020-04-03 21:00:00 13 17 Sudeste 31 Sudeste 0 -- -- 56
2020-04-03 20:00:00 15 21 Sudeste 35 Sudeste 0 -- -- 46
2020-04-03 19:00:00 16.7 21 Sudeste 33 Sudeste 0 -- -- 44
2020-04-03 18:00:00 17.6 21 Sudeste 30 Sudeste 0 -- -- 44
2020-04-03 17:00:00 18.8 15 Sudeste 27 Sudeste 0 -- -- 41
2020-04-03 16:00:00 19.2 11 Sudeste 23 Sudeste 0 -- -- 40
2020-04-03 15:00:00 19.3 5 Sudeste 11 Sudeste 0 -- -- 41
2020-04-03 14:00:00 18 4 Noroeste 13 Oeste 0 -- -- 42
2020-04-03 13:00:00 16 7 Oeste 18 Oeste 0 -- -- 52
2020-04-03 12:00:00 14.3 9 Oeste 18 Oeste 0 -- -- 61
2020-04-03 11:00:00 12.2 10 Oeste 19 Oeste 0 -- -- 71
2020-04-03 10:00:00 10.4 4 Noroeste 16 Oeste 0 -- -- 77
2020-04-03 09:00:00 8.6 10 Oeste 17 Oeste 0 -- -- 88
2020-04-03 08:00:00 8.2 12 Oeste 17 Oeste 0 -- -- 92
2020-04-03 07:00:00 8.4 8 Oeste 13 Oeste 0 -- -- 93
2020-04-03 06:00:00 8.8 8 Oeste 11 Oeste 0 -- -- 92
2020-04-03 05:00:00 9.6 5 Oeste 10 Oeste 0 -- -- 88
2020-04-03 04:00:00 9.7 8 Oeste 12 Oeste 0 -- -- 90
2020-04-03 03:00:00 9.7 4 Noroeste 10 Oeste 0 -- -- 90
2020-04-03 02:00:00 9.7 4 Oeste 10 Oeste 0 -- -- 91
2020-04-03 01:00:00 9.7 2 Oeste 6 Oeste 0 -- -- 92
2020-04-03 00:00:00 9.6 5 Oeste 10 Norte 0 -- -- 90
2020-04-02 23:00:00 10.5 8 Norte 13 Norte 0 -- -- 81
2020-04-02 22:00:00 10.6 0 Calma 11 Nordeste 0 -- -- 84
2020-04-02 21:00:00 11.1 4 Este 13 Sur 0 -- -- 85
2020-04-02 20:00:00 11.8 0 Calma 15 Sudeste 0.5 -- -- 82
2020-04-02 19:00:00 13.2 4 Este 35 Este 0 -- -- 71
2020-04-02 18:00:00 13.8 24 Sudeste 42 Este 0 -- -- 66
2020-04-02 17:00:00 16.9 16 Sudeste 24 Sur 0 -- -- 44
2020-04-02 16:00:00 17.8 10 Sudoeste 18 Sudoeste 0 -- -- 42
2020-04-02 15:00:00 17.9 0 Calma 11 Oeste 0.1 -- -- 42
2020-04-02 14:00:00 16.7 3 Noroeste 15 Oeste 0 -- -- 50
2020-04-02 13:00:00 15.2 4 Oeste 12 Oeste 0 -- -- 55
2020-04-02 12:00:00 12.3 6 Oeste 12 Oeste 0 -- -- 71
2020-04-02 11:00:00 9.6 6 Oeste 10 Oeste 0 -- -- 85
2020-04-02 10:00:00 8.1 2 Noroeste 13 Oeste 0 -- -- 93
2020-04-02 09:00:00 7.2 8 Oeste 12 Oeste 0 -- -- 94
2020-04-02 08:00:00 6.8 9 Oeste 12 Oeste 0 -- -- 95
2020-04-02 07:00:00 7.4 7 Oeste 9 Oeste 0 -- -- 95
2020-04-02 06:00:00 7.6 5 Oeste 10 Oeste 0 -- -- 94
2020-04-02 05:00:00 8.2 6 Oeste 12 Oeste 0 -- -- 95
2020-04-02 04:00:00 8.9 7 Oeste 10 Oeste 0 -- -- 93
2020-04-02 03:00:00 9.2 5 Oeste 7 Oeste 0 -- -- 91
2020-04-02 02:00:00 10 0 Calma 9 Noroeste 0.1 -- -- 84
2020-04-02 01:00:00 10.5 4 Noroeste 18 Norte 0.3 -- -- 84
2020-04-02 00:00:00 10.3 3 Este 25 Nordeste 5.9 -- -- 85
2020-04-01 23:00:00 11 9 Oeste 20 Noroeste 8 -- -- 94
2020-04-01 22:00:00 11.3 9 Noroeste 26 Oeste 1.3 -- -- 88
2020-04-01 21:00:00 14.2 4 Nordeste 18 Sudeste 0.1 -- -- 72
2020-04-01 20:00:00 14.3 4 Este 16 Este 0 -- -- 77
2020-04-01 19:00:00 15.1 0 Calma 16 Norte 0.1 -- -- 77
2020-04-01 18:00:00 14.7 3 Sudeste 27 Sur 3 -- -- 71
2020-04-01 17:00:00 19.7 6 Sudeste 12 Este 0 -- -- 40
2020-04-01 16:00:00 20.5 0 Calma 11 Sudeste 0 -- -- 37
2020-04-01 15:00:00 20.5 4 Nordeste 13 Oeste 0 -- -- 40
2020-04-01 14:00:00 19.1 7 Oeste 15 Oeste 0 -- -- 46
2020-04-01 13:00:00 17.4 6 Oeste 15 Oeste 0 -- -- 54
2020-04-01 12:00:00 15.7 9 Oeste 15 Sudoeste 0 -- -- 65
2020-04-01 11:00:00 13.6 9 Oeste 15 Oeste 0 -- -- 70
2020-04-01 10:00:00 12.3 6 Noroeste 17 Oeste 0 -- -- 77
2020-04-01 09:00:00 10.2 6 Oeste 16 Oeste 0 -- -- 85
2020-04-01 08:00:00 9.5 9 Oeste 12 Oeste 0 -- -- 89
2020-04-01 07:00:00 10.4 0 Calma 15 Nordeste 0 -- -- 84
2020-04-01 06:00:00 11.3 8 Nordeste 21 Nordeste 0 -- -- 78
2020-04-01 05:00:00 12.2 5 Nordeste 14 Sudeste 0 -- -- 81
2020-04-01 04:00:00 12.3 10 Sudeste 20 Sudeste 0 -- -- 93
2020-04-01 03:00:00 12.3 9 Sudeste 14 Sudeste 0 -- -- 90
2020-04-01 02:00:00 12.6 5 Este 9 Sudeste 0 -- -- 89
2020-04-01 01:00:00 13 0 Calma 5 Este 0 -- -- 85
2020-04-01 00:00:00 13.1 0 Calma 13 Sudeste 0 -- -- 87
2020-03-31 23:00:00 13.2 8 Sudeste 20 Sudeste 0 -- -- 85
2020-03-31 22:00:00 13.6 13 Sudeste 19 Sudeste 0 -- -- 81
2020-03-31 21:00:00 14 12 Sudeste 28 Sudeste 0 -- -- 77
2020-03-31 20:00:00 14.8 15 Sudeste 25 Este 0 -- -- 72
2020-03-31 19:00:00 16.2 14 Sudeste 23 Sudeste 0 -- -- 62
2020-03-31 18:00:00 16 10 Sudeste 25 Sudeste 0 -- -- 65
2020-03-31 17:00:00 16 12 Sudeste 19 Este 0 -- -- 66
2020-03-31 16:00:00 15 10 Sudeste 20 Sudeste 0 -- -- 68
2020-03-31 15:00:00 15 10 Sudeste 17 Sudeste 0 -- -- 67
2020-03-31 14:00:00 13.9 8 Sudeste 12 Sudeste 0 -- -- 68
2020-03-31 13:00:00 14.2 3 Este 9 Este 0 -- -- 66
2020-03-31 12:00:00 13.5 0 Calma 6 Nordeste 0 -- -- 71
2020-03-31 11:00:00 10.9 0 Calma 8 Nordeste 0 -- -- 83
2020-03-31 10:00:00 10 0 Calma 15 Este 0 -- -- 93
2020-03-31 09:00:00 9.5 7 Este 13 Este 0.8 -- -- 93
2020-03-31 08:00:00 9.6 3 Oeste 8 Oeste 1.3 -- -- 90
2020-03-31 07:00:00 9.9 2 Sudoeste 8 Nordeste 0.2 -- -- 85
2020-03-31 06:00:00 10.5 2 Nordeste 15 Sudeste 0 -- -- 82
2020-03-31 05:00:00 10.6 11 Sudeste 18 Sudeste 0 -- -- 82
2020-03-31 04:00:00 10.6 13 Sudeste 20 Sudeste 0 -- -- 82
2020-03-31 03:00:00 10.5 10 Sur 26 Sudeste 0 -- -- 81
2020-03-31 02:00:00 10.1 14 Sudeste 27 Sudeste 0 -- -- 82
2020-03-31 01:00:00 9.8 18 Sudeste 28 Sudeste 0 -- -- 83
2020-03-31 00:00:00 10.2 14 Sur 28 Sudeste 0 -- -- 77
2020-03-30 23:00:00 10 15 Sudeste 28 Sudeste 0.1 -- -- 78
2020-03-30 22:00:00 10.3 15 Sudeste 27 Sudeste 0 -- -- 78
2020-03-30 21:00:00 10.5 17 Sudeste 30 Sudeste 0 -- -- 77
2020-03-30 20:00:00 10.6 18 Sudeste 28 Sudeste 0 -- -- 78
2020-03-30 19:00:00 11.2 17 Sudeste 37 Este 0.1 -- -- 79
2020-03-30 18:00:00 11.5 23 Sudeste 44 Sudeste 0 -- -- 78
2020-03-30 17:00:00 13.4 26 Sudeste 46 Sudeste 0 -- -- 68
2020-03-30 16:00:00 15.2 24 Sudeste 42 Sudeste 0 -- -- 62
2020-03-30 15:00:00 15.3 22 Sudeste 37 Sudeste 0 -- -- 61
2020-03-30 14:00:00 17.5 21 Sudeste 34 Sudeste 0 -- -- 57
2020-03-30 13:00:00 15.7 21 Sudeste 29 Sudeste 0 -- -- 57
2020-03-30 12:00:00 16.4 0 Calma 12 Oeste 0 -- -- 56
2020-03-30 11:00:00 13.2 7 Oeste 14 Oeste 0 -- -- 66
2020-03-30 10:00:00 9.7 11 Oeste 19 Oeste 0 -- -- 83
2020-03-30 09:00:00 8.7 12 Oeste 17 Oeste 0 -- -- 88
2020-03-30 08:00:00 8.1 11 Oeste 17 Oeste 0 -- -- 89
2020-03-30 07:00:00 7.6 4 Noroeste 11 Oeste 0 -- -- 90
2020-03-30 06:00:00 7.4 8 Oeste 11 Noroeste 0 -- -- 91
2020-03-30 05:00:00 8 7 Oeste 12 Oeste 0 -- -- 90
2020-03-30 04:00:00 8.2 0 Calma 5 Oeste 0 -- -- 90
2020-03-30 03:00:00 9 2 Oeste 6 Oeste 0 -- -- 85
2020-03-30 02:00:00 9.7 2 Norte 7 Este 0 -- -- 81
2020-03-30 01:00:00 10.1 2 Sudeste 6 Sudeste 0 -- -- 81
2020-03-30 00:00:00 11 0 Calma 5 Sudeste 0 -- -- 72
2020-03-29 23:00:00 12.4 5 Sur 19 Sudeste 0 -- -- 65
2020-03-29 22:00:00 13.7 13 Sudeste 23 Este 0 -- -- 60
2020-03-29 21:00:00 14.5 10 Este 19 Este 0 -- -- 57
2020-03-29 20:00:00 17.6 10 Sur 20 Sur 0 -- -- 42
2020-03-29 19:00:00 20.6 3 Este 9 Sudeste 0 -- -- 31
2020-03-29 18:00:00 21.1 3 Oeste 12 Sudoeste 0 -- -- 31
2020-03-29 17:00:00 20.8 4 Oeste 15 Oeste 0 -- -- 34
2020-03-29 16:00:00 20 10 Oeste 18 Oeste 0 -- -- 35
2020-03-29 15:00:00 19.2 6 Oeste 20 Oeste 0 -- -- 37
2020-03-29 14:00:00 17.8 5 Oeste 19 Oeste 0 -- -- 41
2020-03-29 13:00:00 15.6 8 Oeste 20 Oeste 0 -- -- 45
2020-03-29 12:00:00 13.1 12 Oeste 18 Oeste 0 -- -- 52
2020-03-29 11:00:00 10.3 8 Noroeste 17 Noroeste 0 -- -- 60
2020-03-29 10:00:00 7.1 12 Oeste 15 Oeste 0 -- -- 79
2020-03-29 09:00:00 4.7 8 Oeste 10 Oeste 0 -- -- 89
2020-03-29 08:00:00 3.9 8 Oeste 11 Oeste 0 -- -- 91
2020-03-29 07:00:00 4.2 6 Oeste 9 Oeste 0 -- -- 91
2020-03-29 06:00:00 4.4 5 Oeste 9 Oeste 0 -- -- 91
2020-03-29 05:00:00 5 4 Oeste 9 Oeste 0 -- -- 89
2020-03-29 03:00:00 5.8 8 Oeste 10 Oeste 0 -- -- 91
2020-03-29 01:00:00 5.1 0 Calma -- -- 0 -- -- 88
2020-03-29 00:00:00 6.1 0 Calma 5 Nordeste 0 -- -- 84
2020-03-28 23:00:00 7.4 0 Calma 4 Sudeste 0 -- -- 85
2020-03-28 22:00:00 8.3 3 Este 6 Este 0 -- -- 83
2020-03-28 21:00:00 10.3 2 Este 13 Sudeste 0 -- -- 73
2020-03-28 20:00:00 12 7 Sudeste 13 Sudeste 0 -- -- 62
2020-03-28 19:00:00 14.8 7 Nordeste 13 Nordeste 0 -- -- 42
2020-03-28 18:00:00 16.2 6 Nordeste 16 Nordeste 0 -- -- 39
2020-03-28 17:00:00 15.5 5 Noroeste 13 Norte 0 -- -- 41
2020-03-28 16:00:00 15.1 2 Norte 15 Oeste 0 -- -- 41
2020-03-28 15:00:00 15 3 Oeste 17 Oeste 0 -- -- 42
2020-03-28 14:00:00 15.1 7 Oeste 20 Oeste 0 -- -- 44
2020-03-28 13:00:00 13.2 9 Oeste 19 Noroeste 0 -- -- 51
2020-03-28 12:00:00 12 10 Oeste 17 Oeste 0 -- -- 60
2020-03-28 11:00:00 10 9 Oeste 18 Oeste 0 -- -- 68
2020-03-28 10:00:00 8.4 8 Noroeste 21 Oeste 0 -- -- 76
2020-03-28 09:00:00 6.4 13 Oeste 20 Oeste 0 -- -- 83
2020-03-28 08:00:00 5.1 12 Oeste 18 Oeste 0 -- -- 90
2020-03-28 07:00:00 5.3 10 Noroeste 19 Oeste 0 -- -- 93
2020-03-28 06:00:00 6 7 Noroeste 12 Oeste 0.6 -- -- 94
2020-03-28 05:00:00 6.2 4 Oeste 14 Oeste 2.7 -- -- 93
2020-03-28 04:00:00 6.6 9 Oeste 13 Oeste 2.6 -- -- 94
2020-03-28 03:00:00 7.2 5 Oeste 13 Oeste 0.7 -- -- 91
2020-03-28 02:00:00 7.1 7 Oeste 10 Oeste 0.6 -- -- 93
2020-03-28 01:00:00 7.3 5 Oeste 10 Oeste 0.3 -- -- 94
2020-03-28 00:00:00 7.2 5 Oeste 8 Oeste 0.6 -- -- 94
2020-03-27 23:00:00 7.3 3 Oeste 5 Oeste 0.7 -- -- 94
2020-03-27 22:00:00 7.5 0 Calma 6 Oeste 0.6 -- -- 94
2020-03-27 21:00:00 7.6 4 Oeste 6 Oeste 1.3 -- -- 93
2020-03-27 20:00:00 7.7 2 Oeste 8 Oeste 1 -- -- 88
2020-03-27 19:00:00 8.3 0 Calma 8 Nordeste 0.7 -- -- 84
2020-03-27 18:00:00 8.9 0 Calma 9 Nordeste 0.1 -- -- 78
2020-03-27 17:00:00 8.9 7 Este 22 Sudeste 0.2 -- -- 81
2020-03-27 16:00:00 9 17 Sudeste 28 Sudeste 0 -- -- 74
2020-03-27 15:00:00 9.5 17 Sudeste 28 Sudeste 0 -- -- 76
2020-03-27 14:00:00 8.5 3 Nordeste 10 Nordeste 0.3 -- -- 87
2020-03-27 13:00:00 8.4 2 Nordeste 13 Sudeste 0.1 -- -- 77
2020-03-27 12:00:00 9.1 9 Este 18 Sudeste 0 -- -- 73
2020-03-27 11:00:00 8.6 10 Sudeste 15 Sudeste 0 -- -- 77
2020-03-27 10:00:00 8.1 3 Este 10 Este 0 -- -- 84
2020-03-27 09:00:00 7.6 0 Calma 9 Nordeste 0.3 -- -- 85
2020-03-27 08:00:00 8 3 Nordeste 10 Nordeste 0 -- -- 78
2020-03-27 07:00:00 8.2 5 Nordeste 9 Nordeste 0 -- -- 74
2020-03-27 06:00:00 8.6 6 Sudeste 10 Sudeste 0 -- -- 76
2020-03-27 05:00:00 8.9 0 Calma 6 Norte 0 -- -- 81
2020-03-27 04:00:00 9.1 0 Calma 8 Sudeste 0 -- -- 77
2020-03-27 03:00:00 9.2 0 Calma 10 Nordeste 0 -- -- 73
2020-03-27 02:00:00 9.2 0 Calma 5 Sudeste 0 -- -- 73
2020-03-27 01:00:00 9.6 0 Calma 6 Nordeste 0 -- -- 74
2020-03-27 00:00:00 9.6 0 Calma 5 Norte 0 -- -- 74
2020-03-26 23:00:00 9.5 5 Sudeste 20 Sudeste 0 -- -- 73
2020-03-26 22:00:00 9.7 14 Sudeste 27 Sudeste 0 -- -- 70
2020-03-26 21:00:00 10.6 19 Sudeste 34 Sudeste 0 -- -- 65
2020-03-26 20:00:00 11.8 19 Sudeste 32 Sudeste 0 -- -- 68
2020-03-26 19:00:00 16.3 4 Norte 31 Norte 0 -- -- 29
2020-03-26 18:00:00 17.4 14 Norte 32 Norte 0 -- -- 26
2020-03-26 17:00:00 17.8 14 Norte 37 Norte 0 -- -- 28
2020-03-26 16:00:00 17.9 13 Noroeste 39 Norte 0 -- -- 29
2020-03-26 15:00:00 17.6 19 Norte 41 Norte 0 -- -- 30
2020-03-26 14:00:00 17.1 26 Norte 42 Norte 0 -- -- 30
2020-03-26 13:00:00 16.7 17 Norte 32 Norte 0.1 -- -- 34
2020-03-26 12:00:00 15.5 9 Noroeste 22 Oeste 0 -- -- 51
2020-03-26 11:00:00 12.9 9 Oeste 16 Oeste 0 -- -- 76
2020-03-26 10:00:00 10.2 10 Oeste 14 Noroeste 0 -- -- 83
2020-03-26 09:00:00 8.8 6 Noroeste 15 Oeste 0 -- -- 91
2020-03-26 08:00:00 8 5 Oeste 10 Noroeste 0 -- -- 95
2020-03-26 07:00:00 7.4 7 Noroeste 12 Noroeste 0 -- -- 95
2020-03-26 06:00:00 7.1 2 Oeste 8 Norte 0 -- -- 94
2020-03-26 05:00:00 7.3 0 Calma 5 Sudeste 0 -- -- 94
2020-03-26 04:00:00 7.2 0 Calma 5 Sudeste 0 -- -- 93
2020-03-26 03:00:00 7.8 0 Calma 9 Sur 0 -- -- 91
2020-03-26 02:00:00 8.3 0 Calma 10 Sudeste 0.7 -- -- 91
2020-03-26 01:00:00 8.5 5 Sudeste 11 Sudeste 0 -- -- 90
2020-03-26 00:00:00 8.4 6 Sudeste 15 Sudeste 0 -- -- 90
2020-03-25 23:00:00 8.2 8 Sudeste 19 Sudeste 0 -- -- 91
2020-03-25 22:00:00 7.9 11 Sudeste 21 Sudeste 0.1 -- -- 91
2020-03-25 21:00:00 8.3 9 Sudeste 33 Sudeste 2 -- -- 89
2020-03-25 20:00:00 10.4 20 Sudeste 35 Sudeste 0 -- -- 72
2020-03-25 19:00:00 11.1 22 Sudeste 33 Sudeste 0 -- -- 65
2020-03-25 18:00:00 12.5 21 Sudeste 32 Sudeste 0 -- -- 60
2020-03-25 17:00:00 13.3 17 Sudeste 26 Sudeste 0 -- -- 57
2020-03-25 16:00:00 14.6 10 Sudeste 18 Sudeste 0 -- -- 51
2020-03-25 15:00:00 14.1 5 Sudeste 10 Este 0 -- -- 50
2020-03-25 14:00:00 13.3 5 Nordeste 12 Nordeste 0 -- -- 52
2020-03-25 13:00:00 12.8 4 Norte 13 Oeste 0 -- -- 52
2020-03-25 12:00:00 13.6 5 Noroeste 15 Oeste 0 -- -- 55
2020-03-25 11:00:00 12 5 Noroeste 14 Oeste 0 -- -- 62
2020-03-25 10:00:00 10.4 9 Oeste 14 Oeste 0 -- -- 74
2020-03-25 09:00:00 8.2 6 Oeste 11 Oeste 0 -- -- 83
2020-03-25 08:00:00 7.5 7 Oeste 11 Oeste 0 -- -- 84
2020-03-25 07:00:00 7.2 0 Calma 10 Oeste 0 -- -- 84
2020-03-25 06:00:00 7.3 3 Oeste 11 Oeste 0 -- -- 83
2020-03-25 05:00:00 7.2 7 Oeste 10 Oeste 0 -- -- 83
2020-03-25 04:00:00 6.6 5 Noroeste 13 Oeste 0 -- -- 84
2020-03-25 03:00:00 7.8 5 Oeste 17 Sudoeste 0 -- -- 79
2020-03-25 02:00:00 8.2 4 Noroeste 11 Oeste 0 -- -- 78
2020-03-25 01:00:00 9.9 0 Calma 22 Este 0 -- -- 63
2020-03-25 00:00:00 10.2 6 Sudeste 15 Sudeste 0 -- -- 63
2020-03-24 23:00:00 10.4 4 Sudeste 13 Sudoeste 0 -- -- 67
2020-03-24 22:00:00 10.4 2 Sudeste 24 Nordeste 0 -- -- 69
2020-03-24 21:00:00 10.6 5 Nordeste 16 Nordeste 0 -- -- 73
2020-03-24 20:00:00 10.8 9 Norte 27 Nordeste 0 -- -- 76
2020-03-24 19:00:00 11 12 Nordeste 24 Norte 0 -- -- 78
2020-03-24 18:00:00 10.9 0 Calma 13 Oeste 0.1 -- -- 93
2020-03-24 17:00:00 11.2 5 Oeste 11 Sudoeste 0.5 -- -- 90
2020-03-24 16:00:00 11.7 0 Calma 5 Noroeste 0.1 -- -- 84
2020-03-24 15:00:00 11.6 0 Calma 9 Nordeste 0.2 -- -- 85
2020-03-24 14:00:00 11.4 0 Calma 9 Oeste 0.1 -- -- 89
2020-03-24 13:00:00 10.7 5 Oeste 12 Oeste 0.1 -- -- 93
2020-03-24 12:00:00 10.3 6 Noroeste 10 Noroeste 2.1 -- -- 94
2020-03-24 11:00:00 10 4 Noroeste 14 Oeste 1.3 -- -- 94
2020-03-24 10:00:00 9.9 4 Oeste 22 Nordeste 0.3 -- -- 90
2020-03-24 09:00:00 9.9 3 Norte 15 Norte 3.5 -- -- 89
2020-03-24 08:00:00 9.5 0 Calma 10 Sudeste 2.1 -- -- 90
2020-03-24 07:00:00 9.6 0 Calma 16 Norte 2.1 -- -- 88
2020-03-24 06:00:00 9.6 2 Oeste 8 Sur 0.1 -- -- 89
2020-03-24 05:00:00 9.5 0 Calma 13 Oeste 1.3 -- -- 92
2020-03-24 04:00:00 9.7 5 Noroeste 8 Noroeste 4.6 -- -- 94
2020-03-24 03:00:00 10 6 Sur 12 Sudeste 5.6 -- -- 92
2020-03-24 02:00:00 9.9 2 Este 14 Este 6.7 -- -- 91
2020-03-24 01:00:00 10.3 4 Este 13 Sudeste 1.3 -- -- 89
2020-03-24 00:00:00 10.6 0 Calma 6 Oeste 0.2 -- -- 90
2020-03-23 23:00:00 10.9 0 Calma 20 Este 0 -- -- 89
2020-03-23 22:00:00 10.7 0 Calma 10 Oeste 1.2 -- -- 93
2020-03-23 21:00:00 11.1 4 Noroeste 9 Oeste 0.4 -- -- 93
2020-03-23 20:00:00 11.5 5 Sudeste 19 Este 0.5 -- -- 88
2020-03-23 19:00:00 11.4 15 Sudeste 35 Este 0.3 -- -- 84
2020-03-23 18:00:00 12.6 20 Este 39 Este 0.1 -- -- 73
2020-03-23 17:00:00 13.7 23 Sudeste 42 Sudeste 0 -- -- 72
2020-03-23 16:00:00 15.3 24 Sudeste 37 Sudeste 0 -- -- 62
2020-03-23 15:00:00 15.5 17 Sudeste 27 Sudeste 0 -- -- 60
2020-03-23 14:00:00 14.6 8 Nordeste 20 Nordeste 0.1 -- -- 67
2020-03-23 13:00:00 13.1 13 Nordeste 22 Nordeste 0 -- -- 72
2020-03-23 12:00:00 12.3 3 Este 19 Sudeste 0.1 -- -- 83
2020-03-23 11:00:00 12.2 0 Calma 8 Noroeste 0 -- -- 82
2020-03-23 10:00:00 11.4 4 Oeste 7 Oeste 0.1 -- -- 84
2020-03-23 09:00:00 10.4 5 Oeste 9 Oeste 0 -- -- 88
2020-03-23 08:00:00 9.4 7 Oeste 10 Oeste 0 -- -- 92
2020-03-23 07:00:00 9 0 Calma 8 Oeste 0 -- -- 91
2020-03-23 06:00:00 9.4 6 Oeste 9 Oeste 0 -- -- 90
2020-03-23 05:00:00 9.4 5 Oeste 6 Oeste 0 -- -- 90
2020-03-23 04:00:00 9.4 4 Oeste 5 Oeste 0 -- -- 90
2020-03-23 03:00:00 9.2 3 Oeste 7 Oeste 0 -- -- 91
2020-03-23 02:00:00 8.9 5 Oeste 8 Oeste 0 -- -- 91
2020-03-23 01:00:00 8.6 0 Calma -- -- 0 -- -- 91
2020-03-23 00:00:00 8.5 0 Calma 3 Este 0 -- -- 89
2020-03-22 23:00:00 9.4 0 Calma 7 Nordeste 0 -- -- 87
2020-03-22 22:00:00 9.5 0 Calma 8 Nordeste 0 -- -- 88
2020-03-22 21:00:00 10.1 0 Calma 8 Sur 0 -- -- 87
2020-03-22 20:00:00 10.2 0 Calma 18 Sudeste 0 -- -- 89
2020-03-22 19:00:00 10.3 12 Sudeste 17 Sudeste 0 -- -- 89
2020-03-22 18:00:00 10.9 7 Este 23 Sudeste 0 -- -- 83
2020-03-22 17:00:00 10.6 11 Este 14 Sudeste 0 -- -- 87
2020-03-22 16:00:00 10.7 4 Sudeste 23 Sudeste 0.1 -- -- 90
2020-03-22 15:00:00 10.7 14 Este 23 Este 0.4 -- -- 89
2020-03-22 14:00:00 10.8 5 Oeste 13 Oeste 0.3 -- -- 87
2020-03-22 13:00:00 11.3 8 Oeste 13 Noroeste 0 -- -- 79
2020-03-22 12:00:00 11.2 2 Noroeste 7 Oeste 0 -- -- 78
2020-03-22 11:00:00 9.4 5 Oeste 13 Oeste 0 -- -- 84
2020-03-22 10:00:00 9 9 Oeste 12 Oeste 0 -- -- 83
2020-03-22 09:00:00 7.9 6 Oeste 13 Oeste 0 -- -- 91
2020-03-22 08:00:00 6.4 10 Oeste 14 Oeste 0 -- -- 94
2020-03-22 07:00:00 6.3 7 Oeste 12 Oeste 0 -- -- 95
2020-03-22 06:00:00 6 9 Oeste 13 Oeste 0 -- -- 95
2020-03-22 05:00:00 6 8 Oeste 11 Oeste 0 -- -- 95
2020-03-22 04:00:00 6.7 7 Oeste 12 Oeste 0 -- -- 94
2020-03-22 03:00:00 6.8 8 Oeste 14 Oeste 0 -- -- 94
2020-03-22 02:00:00 6.7 9 Oeste 14 Oeste 0 -- -- 94
2020-03-22 01:00:00 7 8 Noroeste 15 Oeste 0 -- -- 95
2020-03-22 00:00:00 7.6 7 Noroeste 12 Noroeste 0 -- -- 95
2020-03-21 23:00:00 8.3 6 Noroeste 10 Noroeste 0 -- -- 94
2020-03-21 22:00:00 8.6 3 Noroeste 12 Oeste 0 -- -- 94
2020-03-21 21:00:00 8.7 6 Oeste 11 Oeste 0.7 -- -- 94
2020-03-21 20:00:00 9 8 Oeste 14 Oeste 0.2 -- -- 94
2020-03-21 19:00:00 9.1 8 Oeste 12 Noroeste 0.2 -- -- 93
2020-03-21 18:00:00 9.1 0 Calma 9 Oeste 4.3 -- -- 93
2020-03-21 17:00:00 9 5 Oeste 17 Oeste 4.1 -- -- 94
2020-03-21 16:00:00 9.3 10 Oeste 26 Sudoeste 8.4 -- -- 94
2020-03-21 15:00:00 10.6 12 Oeste 21 Oeste 0.1 -- -- 87
2020-03-21 14:00:00 12.3 15 Sudeste 23 Sudeste 0 -- -- 83
2020-03-21 13:00:00 14.1 12 Sudeste 20 Sudeste 0 -- -- 65
2020-03-21 12:00:00 14.7 15 Sudeste 21 Sudeste 0 -- -- 62
2020-03-21 11:00:00 14.3 8 Sudeste 13 Este 0 -- -- 66
2020-03-21 10:00:00 13.1 0 Calma 5 Oeste 0 -- -- 76
2020-03-21 09:00:00 11.8 0 Calma 8 Oeste 0 -- -- 87
2020-03-21 08:00:00 10.7 5 Oeste 10 Oeste 0 -- -- 92
2020-03-21 07:00:00 10.6 6 Oeste 9 Oeste 0 -- -- 90
2020-03-21 06:00:00 10.8 0 Calma -- -- 0 -- -- 90
2020-03-21 05:00:00 10.8 0 Calma -- -- 0 -- -- 90
2020-03-21 04:00:00 11 0 Calma 4 Oeste 0 -- -- 90
2020-03-21 03:00:00 11.1 0 Calma 10 Nordeste 0 -- -- 83
2020-03-21 02:00:00 11.2 5 Nordeste 10 Nordeste 0 -- -- 83
2020-03-21 01:00:00 11.3 4 Norte 9 Norte 0 -- -- 83
2020-03-21 00:00:00 11.2 0 Calma 4 Sudeste 0 -- -- 88
2020-03-20 23:00:00 11.6 3 Sudeste 16 Sudeste 0.3 -- -- 90
2020-03-20 22:00:00 11.9 7 Sudeste 21 Sudeste 0 -- -- 87
2020-03-20 21:00:00 12.6 13 Sudeste 21 Sudeste 0 -- -- 76
2020-03-20 20:00:00 13.2 9 Sudeste 15 Sudeste 0 -- -- 63
2020-03-20 19:00:00 13.8 10 Sudeste 17 Sudeste 0 -- -- 61
2020-03-20 18:00:00 15 4 Oeste 9 Oeste 0 -- -- 56
2020-03-20 17:00:00 15.8 0 Calma 6 Sudoeste 0 -- -- 53
2020-03-20 16:00:00 15.5 3 Noroeste 8 Noroeste 0 -- -- 53
2020-03-20 15:00:00 14.9 2 Sudeste 13 Este 0 -- -- 55
2020-03-20 14:00:00 14.3 8 Sudeste 14 Sudeste 0 -- -- 54
2020-03-20 13:00:00 14.5 4 Sudeste 11 Sudeste 0 -- -- 56
2020-03-20 12:00:00 14 3 Sudoeste 10 Oeste 0 -- -- 58
2020-03-20 11:00:00 13.1 5 Oeste 10 Oeste 0 -- -- 68
2020-03-20 10:00:00 11.4 2 Oeste 6 Oeste 0 -- -- 81
2020-03-20 09:00:00 8.9 3 Oeste 8 Oeste 0 -- -- 89
2020-03-20 08:00:00 7.6 6 Oeste 9 Oeste 0 -- -- 91
2020-03-20 07:00:00 7.6 7 Oeste 9 Oeste 0 -- -- 91
2020-03-20 06:00:00 7.3 0 Calma 5 Oeste 0 -- -- 91
2020-03-20 05:00:00 8 0 Calma 8 Oeste 0 -- -- 91
2020-03-20 04:00:00 8.3 6 Oeste 8 Oeste 0 -- -- 92
2020-03-20 03:00:00 8.6 0 Calma 6 Nordeste 0 -- -- 87
2020-03-20 02:00:00 9.5 0 Calma -- -- 0 -- -- 88
2020-03-20 01:00:00 10.3 0 Calma -- -- 0 -- -- 87
2020-03-20 00:00:00 10.6 0 Calma -- -- 0 -- -- 84
2020-03-19 23:00:00 11.6 0 Calma 7 Sudeste 0 -- -- 79
2020-03-19 22:00:00 12 6 Sudeste 19 Sudeste 0 -- -- 78
2020-03-19 21:00:00 12.4 12 Sudeste 23 Sudeste 0 -- -- 75
2020-03-19 20:00:00 13.1 16 Sudeste 27 Sudeste 0 -- -- 68
2020-03-19 19:00:00 13.9 17 Sudeste 34 Sudeste 0 -- -- 63
2020-03-19 18:00:00 14.6 22 Sudeste 38 Sudeste 0 -- -- 60
2020-03-19 17:00:00 15.9 22 Sudeste 40 Sudeste 0 -- -- 52
2020-03-19 16:00:00 16.8 23 Sudeste 35 Sudeste 0 -- -- 50
2020-03-19 15:00:00 17.2 20 Sudeste 34 Sudeste 0 -- -- 46
2020-03-19 14:00:00 17.4 18 Sudeste 28 Sudeste 0 -- -- 47
2020-03-19 13:00:00 16.1 7 Sudeste 15 Sudeste 0 -- -- 56
2020-03-19 12:00:00 14.6 0 Calma 12 Oeste 0 -- -- 61
2020-03-19 11:00:00 12.9 8 Oeste 15 Oeste 0 -- -- 72
2020-03-19 10:00:00 11.2 10 Oeste 16 Oeste 0 -- -- 77
2020-03-19 09:00:00 8.7 8 Oeste 13 Oeste 0 -- -- 88
2020-03-19 08:00:00 7.2 8 Oeste 12 Oeste 0 -- -- 91
2020-03-19 07:00:00 7.2 4 Oeste 11 Oeste 0 -- -- 91
2020-03-19 06:00:00 7.3 8 Oeste 13 Oeste 0 -- -- 91
2020-03-19 05:00:00 7.4 8 Oeste 13 Oeste 0 -- -- 91
2020-03-19 04:00:00 8.1 9 Oeste 13 Oeste 0 -- -- 90
2020-03-19 03:00:00 8.9 6 Oeste 12 Oeste 0 -- -- 87
2020-03-19 02:00:00 8.9 9 Oeste 15 Oeste 0 -- -- 85
2020-03-19 01:00:00 9.8 4 Noroeste 12 Noroeste 0 -- -- 79
2020-03-19 00:00:00 10.5 5 Noroeste 17 Norte 0 -- -- 72
2020-03-18 23:00:00 11.3 10 Nordeste 19 Nordeste 0 -- -- 67
2020-03-18 22:00:00 12.2 9 Nordeste 20 Norte 0 -- -- 63
2020-03-18 21:00:00 12.5 7 Nordeste 21 Nordeste 0 -- -- 62
2020-03-18 20:00:00 13.7 11 Nordeste 23 Nordeste 0 -- -- 58
2020-03-18 19:00:00 15 5 Nordeste 17 Nordeste 0 -- -- 56
2020-03-18 18:00:00 15.9 6 Nordeste 17 Nordeste 0 -- -- 55
2020-03-18 17:00:00 16.7 9 Sudeste 17 Sudeste 0 -- -- 56
2020-03-18 16:00:00 16.5 14 Sudeste 20 Sudeste 0 -- -- 56
2020-03-18 15:00:00 17.2 12 Nordeste 21 Nordeste 0 -- -- 52
2020-03-18 14:00:00 17.4 8 Nordeste 20 Nordeste 0 -- -- 51
2020-03-18 13:00:00 17.7 3 Nordeste 19 Nordeste 0 -- -- 50
2020-03-18 12:00:00 17.4 8 Nordeste 15 Norte 0 -- -- 54
2020-03-18 11:00:00 15.6 7 Norte 14 Norte 0 -- -- 60
2020-03-18 10:00:00 12.5 10 Oeste 15 Oeste 0 -- -- 79
2020-03-18 09:00:00 10.9 8 Noroeste 12 Noroeste 0 -- -- 85
2020-03-18 08:00:00 10 8 Oeste 13 Oeste 0 -- -- 88
2020-03-18 07:00:00 9.4 7 Oeste 13 Oeste 0 -- -- 89
2020-03-18 06:00:00 9.9 7 Oeste 11 Oeste 0 -- -- 88
2020-03-18 05:00:00 10.2 8 Oeste 14 Oeste 0 -- -- 88
2020-03-18 04:00:00 10.1 4 Noroeste 10 Oeste 0 -- -- 89
2020-03-18 03:00:00 10.3 6 Oeste 10 Oeste 0 -- -- 88
2020-03-18 02:00:00 11.3 3 Sudeste 13 Sur 0 -- -- 85
2020-03-18 01:00:00 12.2 5 Sudoeste 9 Sudoeste 0 -- -- 88
2020-03-18 00:00:00 12 0 Calma -- -- 0 -- -- 88
2020-03-17 23:00:00 13 2 Sudoeste 8 Sudoeste 0 -- -- 85
2020-03-17 22:00:00 13.7 4 Sudeste 7 Sudeste 0 -- -- 82
2020-03-17 21:00:00 14.6 3 Sudeste 21 Nordeste 0 -- -- 78
2020-03-17 20:00:00 15.2 8 Nordeste 19 Nordeste 0 -- -- 72
2020-03-17 19:00:00 14.9 11 Norte 18 Nordeste 0 -- -- 74
2020-03-17 18:00:00 15.2 3 Oeste 9 Norte 0 -- -- 71
2020-03-17 17:00:00 15.4 8 Norte 20 Norte 0 -- -- 67
2020-03-17 16:00:00 15.4 9 Oeste 18 Oeste 0 -- -- 65
2020-03-17 15:00:00 15.9 10 Oeste 15 Oeste 0 -- -- 61
2020-03-17 14:00:00 15.1 7 Noroeste 15 Noroeste 0 -- -- 61
2020-03-17 13:00:00 13.8 8 Noroeste 17 Noroeste 0 -- -- 66
2020-03-17 12:00:00 11.3 9 Oeste 14 Oeste 0 -- -- 73
2020-03-17 11:00:00 9.8 6 Oeste 10 Oeste 0 -- -- 76
2020-03-17 10:00:00 8.6 8 Oeste 15 Oeste 0 -- -- 78
2020-03-17 09:00:00 7.4 9 Oeste 13 Oeste 0 -- -- 82
2020-03-17 08:00:00 6.4 9 Oeste 15 Oeste 0 -- -- 83
2020-03-17 07:00:00 6.5 10 Oeste 15 Oeste 0 -- -- 81
2020-03-17 06:00:00 6.4 10 Oeste 12 Oeste 0 -- -- 81
2020-03-17 05:00:00 6.3 9 Oeste 15 Oeste 0 -- -- 82
2020-03-17 04:00:00 6 10 Oeste 14 Oeste 0 -- -- 84
2020-03-17 03:00:00 6.4 7 Oeste 11 Oeste 0 -- -- 82
2020-03-17 02:00:00 6.3 7 Oeste 12 Oeste 0 -- -- 82
2020-03-17 01:00:00 6.4 8 Oeste 12 Oeste 0 -- -- 81
2020-03-17 00:00:00 6 9 Oeste 14 Oeste 0 -- -- 83
2020-03-16 23:00:00 5.4 0 Calma 14 Noroeste 0 -- -- 85
2020-03-16 22:00:00 5.7 6 Noroeste 15 Oeste 0 -- -- 83
2020-03-16 21:00:00 6.9 7 Oeste 19 Norte 0 -- -- 76
2020-03-16 20:00:00 7.7 7 Norte 14 Norte 0 -- -- 70
2020-03-16 19:00:00 8.4 5 Noroeste 18 Norte 0 -- -- 66
2020-03-16 18:00:00 7.8 10 Norte 18 Noroeste 0 -- -- 68
2020-03-16 17:00:00 7.7 10 Norte 20 Noroeste 0.5 -- -- 73
2020-03-16 16:00:00 8.2 12 Oeste 17 Oeste 0 -- -- 73
2020-03-16 15:00:00 8 8 Noroeste 18 Noroeste 0.3 -- -- 73
2020-03-16 14:00:00 8.6 10 Norte 26 Norte 0.3 -- -- 74
2020-03-16 13:00:00 7.5 8 Norte 20 Norte 3.9 -- -- 85
2020-03-16 12:00:00 8.6 12 Norte 30 Oeste 0.6 -- -- 78
2020-03-16 11:00:00 9.4 14 Noroeste 30 Oeste 0.9 -- -- 82
2020-03-16 10:00:00 12.7 10 Sudeste 18 Este 0 -- -- 89
2020-03-16 09:00:00 12.3 12 Sudeste 27 Sudeste 0 -- -- 90
2020-03-16 08:00:00 11.9 15 Sudeste 25 Sudeste 0 -- -- 93
2020-03-16 07:00:00 11.9 13 Sudeste 24 Sudeste 0 -- -- 94
2020-03-16 06:00:00 11.7 9 Sudeste 16 Este 0 -- -- 93
2020-03-16 05:00:00 11.7 3 Sudeste 6 Sudeste 0 -- -- 93
2020-03-16 04:00:00 12 0 Calma 8 Sudeste 0 -- -- 93
2020-03-16 03:00:00 12 5 Sudeste 10 Este 0.1 -- -- 93
2020-03-16 02:00:00 12.1 9 Sudeste 22 Sudeste 0.4 -- -- 94
2020-03-16 01:00:00 12.4 17 Sudeste 26 Sudeste 0.1 -- -- 90
2020-03-16 00:00:00 12.9 19 Sudeste 32 Sudeste 0 -- -- 85
2020-03-15 23:00:00 12.9 12 Sudeste 22 Sudeste 0 -- -- 83
2020-03-15 22:00:00 13 16 Sudeste 28 Sudeste 0 -- -- 83
2020-03-15 21:00:00 13.3 19 Sudeste 29 Sudeste 0 -- -- 81
2020-03-15 20:00:00 14 18 Sudeste 32 Sudeste 0 -- -- 76
2020-03-15 19:00:00 14.6 21 Sudeste 37 Sudeste 0 -- -- 71
2020-03-15 18:00:00 16 25 Sudeste 38 Este 0 -- -- 63
2020-03-15 17:00:00 18.7 20 Sudeste 33 Este 0 -- -- 52
2020-03-15 16:00:00 19.3 19 Sudeste 35 Sudeste 0 -- -- 50
2020-03-15 15:00:00 19.2 17 Sudeste 31 Sudeste 0 -- -- 51
2020-03-15 14:00:00 18.9 18 Sudeste 29 Este 0 -- -- 50
2020-03-15 13:00:00 17.6 19 Sudeste 32 Sudeste 0 -- -- 54
2020-03-15 12:00:00 17.8 14 Sudeste 26 Sudeste 0 -- -- 52
2020-03-15 11:00:00 17.2 8 Sudeste 18 Sudeste 0 -- -- 56
2020-03-15 10:00:00 14.7 0 Calma 13 Nordeste 0 -- -- 70
2020-03-15 09:00:00 12.2 8 Nordeste 14 Nordeste 0 -- -- 78
2020-03-15 08:00:00 11.1 6 Nordeste 12 Nordeste 0 -- -- 83
2020-03-15 07:00:00 11.1 6 Nordeste 11 Nordeste 0 -- -- 84
2020-03-15 06:00:00 12 2 Nordeste 10 Nordeste 0 -- -- 82
2020-03-15 05:00:00 12 0 Calma 13 Nordeste 0 -- -- 83
2020-03-15 04:00:00 12 2 Nordeste 8 Nordeste 0 -- -- 83
2020-03-15 03:00:00 12.2 0 Calma 11 Sudeste 0 -- -- 84
2020-03-15 02:00:00 13 6 Sudeste 14 Sudeste 0 -- -- 81
2020-03-15 01:00:00 12.7 8 Sudeste 18 Sudeste 0 -- -- 87
2020-03-15 00:00:00 12.2 10 Sudeste 21 Sudeste 0 -- -- 93
2020-03-14 23:00:00 12.4 14 Sudeste 22 Sudeste 0 -- -- 92
2020-03-14 22:00:00 13 13 Sudeste 24 Sudeste 0 -- -- 88
2020-03-14 21:00:00 13.8 15 Sudeste 26 Sudeste 0 -- -- 81
2020-03-14 20:00:00 14.8 18 Sudeste 27 Sudeste 0 -- -- 76
2020-03-14 19:00:00 16.3 17 Sudeste 30 Sudeste 0 -- -- 68
2020-03-14 18:00:00 18.7 23 Sudeste 32 Este 0 -- -- 60
2020-03-14 17:00:00 21.5 13 Sudeste 24 Este 0 -- -- 46
2020-03-14 16:00:00 21.5 15 Sudeste 26 Sudeste 0 -- -- 44
2020-03-14 15:00:00 21.3 13 Sudeste 26 Sudeste 0 -- -- 46
2020-03-14 14:00:00 20.6 10 Sudeste 22 Sudeste 0 -- -- 49
2020-03-14 13:00:00 19 11 Sudeste 23 Sudeste 0 -- -- 55
2020-03-14 12:00:00 17.6 14 Sudeste 23 Sudeste 0 -- -- 62
2020-03-14 11:00:00 16.6 9 Sudeste 18 Sudeste 0 -- -- 66
2020-03-14 10:00:00 12.7 5 Oeste 9 Oeste 0 -- -- 77
2020-03-14 09:00:00 9.8 5 Oeste 6 Noroeste 0 -- -- 85
2020-03-14 08:00:00 8.1 0 Calma 5 Oeste 0 -- -- 93
2020-03-14 07:00:00 7.5 0 Calma -- -- 0 -- -- 90
2020-03-14 06:00:00 8.5 0 Calma 9 Oeste 0 -- -- 88
2020-03-14 05:00:00 10.1 6 Oeste 9 Oeste 0 -- -- 85
2020-03-14 04:00:00 10.9 5 Oeste 7 Oeste 0 -- -- 84
2020-03-14 03:00:00 10.9 0 Calma 4 Nordeste 0 -- -- 84
2020-03-14 02:00:00 11.4 2 Este 9 Este 0 -- -- 81
2020-03-14 01:00:00 12.4 0 Calma 3 Este 0 -- -- 77
2020-03-14 00:00:00 13.1 0 Calma 13 Sudeste 0 -- -- 73
2020-03-13 23:00:00 13.8 10 Sudeste 17 Sudeste 0 -- -- 68
2020-03-13 22:00:00 14.5 11 Sudeste 21 Sudeste 0 -- -- 63
2020-03-13 21:00:00 14.9 12 Sudeste 23 Sudeste 0 -- -- 61
2020-03-13 20:00:00 15.4 15 Sudeste 26 Sudeste 0 -- -- 57
2020-03-13 19:00:00 16.3 18 Sudeste 33 Sudeste 0 -- -- 54
2020-03-13 18:00:00 17.6 21 Sudeste 36 Sudeste 0 -- -- 50
2020-03-13 17:00:00 19.1 23 Sudeste 36 Sudeste 0 -- -- 44
2020-03-13 16:00:00 20.4 25 Sudeste 40 Este 0 -- -- 44
2020-03-13 15:00:00 22.8 18 Sudeste 33 Sudeste 0 -- -- 42
2020-03-13 14:00:00 21.8 18 Sudeste 28 Sudeste 0 -- -- 44
2020-03-13 13:00:00 22.8 11 Sudeste 21 Sudeste 0 -- -- 42
2020-03-13 12:00:00 19.5 2 Noroeste 11 Noroeste 0 -- -- 56
2020-03-13 11:00:00 16.3 7 Oeste 15 Oeste 0 -- -- 66
2020-03-13 10:00:00 13.3 9 Oeste 14 Oeste 0 -- -- 73
2020-03-13 09:00:00 11.3 11 Oeste 15 Oeste 0 -- -- 78
2020-03-13 08:00:00 9.8 8 Oeste 14 Oeste 0 -- -- 83
2020-03-13 07:00:00 10 8 Oeste 13 Oeste 0 -- -- 82
2020-03-13 06:00:00 10 9 Oeste 13 Oeste 0 -- -- 82
2020-03-13 05:00:00 10.2 6 Oeste 12 Oeste 0 -- -- 81
2020-03-13 04:00:00 10.6 9 Oeste 11 Oeste 0 -- -- 77
2020-03-13 03:00:00 12.4 6 Oeste 11 Oeste 0 -- -- 71
2020-03-13 02:00:00 12.6 8 Oeste 13 Oeste 0 -- -- 71
2020-03-13 01:00:00 13.3 0 Calma 9 Oeste 0 -- -- 65
2020-03-13 00:00:00 14.1 2 Sudeste 5 Este 0 -- -- 62
2020-03-12 23:00:00 14.6 0 Calma 4 Este 0 -- -- 57
2020-03-12 22:00:00 16 0 Calma 14 Sudeste 0 -- -- 49
2020-03-12 21:00:00 18.8 9 Sudeste 19 Sudeste 0 -- -- 44
2020-03-12 20:00:00 20.4 15 Sudeste 27 Sudeste 0 -- -- 44
2020-03-12 19:00:00 22.2 17 Sudeste 30 Este 0 -- -- 44
2020-03-12 18:00:00 24.3 16 Sudeste 28 Sudeste 0 -- -- 39
2020-03-12 17:00:00 26.3 13 Sudeste 26 Sudeste 0 -- -- 34
2020-03-12 16:00:00 26.7 14 Sudeste 28 Sudeste 0 -- -- 35
2020-03-12 15:00:00 26.7 14 Sudeste 25 Este 0 -- -- 35
2020-03-12 14:00:00 26.8 12 Sudeste 21 Este 0 -- -- 35
2020-03-12 13:00:00 25.3 6 Este 17 Sudeste 0 -- -- 40
2020-03-12 12:00:00 21.5 4 Noroeste 11 Oeste 0 -- -- 51
2020-03-12 11:00:00 17.7 8 Oeste 14 Oeste 0 -- -- 60
2020-03-12 10:00:00 14.2 10 Oeste 15 Oeste 0 -- -- 71
2020-03-12 09:00:00 11.2 12 Oeste 17 Oeste 0 -- -- 82
2020-03-12 08:00:00 10 10 Oeste 14 Oeste 0 -- -- 85
2020-03-12 07:00:00 9 4 Noroeste 12 Oeste 0 -- -- 88
2020-03-12 06:00:00 9.8 9 Oeste 12 Oeste 0 -- -- 85
2020-03-12 05:00:00 10.3 6 Oeste 9 Oeste 0 -- -- 84
2020-03-12 04:00:00 10.6 0 Calma 7 Oeste 0 -- -- 83
2020-03-12 03:00:00 11.5 4 Oeste 8 Oeste 0 -- -- 81
2020-03-12 02:00:00 12.1 5 Oeste 7 Oeste 0 -- -- 79
2020-03-12 01:00:00 13.4 4 Sudeste 6 Sudeste 0 -- -- 72
2020-03-12 00:00:00 14.1 0 Calma 6 Sudeste 0 -- -- 68
2020-03-11 23:00:00 15 0 Calma -- -- 0 -- -- 66
2020-03-11 22:00:00 15.2 0 Calma 10 Este 0 -- -- 63
2020-03-11 21:00:00 19.8 10 Sudeste 17 Sudeste 0 -- -- 50
2020-03-11 20:00:00 20.4 12 Sudeste 22 Sudeste 0 -- -- 50
2020-03-11 19:00:00 22.4 16 Sudeste 30 Este 0 -- -- 47
2020-03-11 18:00:00 25.4 19 Sudeste 30 Sudeste 0 -- -- 42
2020-03-11 17:00:00 29.4 10 Sudeste 18 Sudeste 0 -- -- 30
2020-03-11 16:00:00 30.1 5 Sudeste 13 Este 0 -- -- 29
2020-03-11 15:00:00 28.7 3 Norte 12 Noroeste 0 -- -- 31
2020-03-11 14:00:00 27.3 4 Noroeste 12 Oeste 0 -- -- 36
2020-03-11 13:00:00 25.4 6 Noroeste 15 Oeste 0 -- -- 40
2020-03-11 12:00:00 22 10 Oeste 20 Oeste 0 -- -- 45
2020-03-11 11:00:00 19 12 Oeste 21 Oeste 0 -- -- 51
2020-03-11 10:00:00 14.7 14 Oeste 19 Oeste 0 -- -- 67
2020-03-11 09:00:00 10.8 10 Oeste 15 Oeste 0 -- -- 78
2020-03-11 08:00:00 9.3 7 Oeste 21 Oeste 0 -- -- 83
2020-03-11 07:00:00 9.3 8 Oeste 17 Oeste 0 -- -- 84
2020-03-11 06:00:00 9.7 12 Oeste 15 Oeste 0 -- -- 84
2020-03-11 05:00:00 9.8 14 Oeste 18 Oeste 0 -- -- 84
2020-03-11 04:00:00 10.7 12 Oeste 15 Oeste 0 -- -- 82
2020-03-11 03:00:00 10.5 7 Oeste 17 Oeste 0 -- -- 83
2020-03-11 02:00:00 10.4 9 Oeste 14 Oeste 0 -- -- 83
2020-03-11 01:00:00 11.3 5 Oeste 9 Oeste 0 -- -- 81
2020-03-11 00:00:00 10.7 0 Calma 3 Este 0 -- -- 81
2020-03-10 23:00:00 12.4 0 Calma 11 Sudeste 0 -- -- 73
2020-03-10 22:00:00 13.9 6 Sudeste 14 Sudeste 0 -- -- 70
2020-03-10 21:00:00 14.9 11 Sudeste 18 Sudeste 0 -- -- 66
2020-03-10 20:00:00 16 13 Sudeste 23 Sudeste 0 -- -- 62
2020-03-10 19:00:00 18.1 13 Sudeste 28 Sudeste 0 -- -- 55
2020-03-10 18:00:00 20.7 16 Sudeste 28 Sudeste 0 -- -- 45
2020-03-10 17:00:00 22.8 15 Sudeste 23 Sudeste 0 -- -- 36
2020-03-10 16:00:00 23.5 17 Sudeste 27 Sudeste 0 -- -- 36
2020-03-10 15:00:00 25 0 Calma 15 Noroeste 0 -- -- 34
2020-03-10 14:00:00 24 4 Noroeste 15 Oeste 0 -- -- 35
2020-03-10 13:00:00 22.2 9 Oeste 21 Noroeste 0 -- -- 38
2020-03-10 12:00:00 19.7 6 Noroeste 21 Oeste 0 -- -- 42
2020-03-10 11:00:00 17 12 Oeste 19 Oeste 0 -- -- 46
2020-03-10 10:00:00 15.2 13 Oeste 20 Noroeste 0 -- -- 49
2020-03-10 09:00:00 13.3 13 Noroeste 23 Noroeste 0 -- -- 51
2020-03-10 08:00:00 11.8 13 Oeste 22 Oeste 0 -- -- 51
2020-03-10 07:00:00 11.2 6 Sudoeste 16 Noroeste 0 -- -- 52
2020-03-10 06:00:00 11 9 Sudoeste 15 Oeste 0 -- -- 52
2020-03-10 05:00:00 11.7 5 Oeste 11 Oeste 0 -- -- 50
2020-03-10 04:00:00 12 0 Calma 22 Noroeste 0 -- -- 47
2020-03-10 03:00:00 12.9 5 Noroeste 13 Noroeste 0 -- -- 46
2020-03-10 02:00:00 14.7 10 Oeste 22 Noroeste 0 -- -- 42
2020-03-10 01:00:00 14 5 Sudoeste 17 Sudoeste 0 -- -- 42
2020-03-10 00:00:00 15.7 8 Noroeste 18 Noroeste 0 -- -- 40
2020-03-09 23:00:00 16.4 7 Oeste 19 Oeste 0 -- -- 39
2020-03-09 22:00:00 16.6 10 Noroeste 23 Noroeste 0 -- -- 39
2020-03-09 21:00:00 17.8 14 Noroeste 29 Noroeste 0 -- -- 36
2020-03-09 20:00:00 18.7 15 Noroeste 28 Noroeste 0 -- -- 34
2020-03-09 19:00:00 20.1 13 Noroeste 36 Norte 0 -- -- 33
2020-03-09 18:00:00 22 13 Noroeste 33 Noroeste 0 -- -- 30
2020-03-09 17:00:00 23 10 Noroeste 28 Noroeste 0 -- -- 30
2020-03-09 16:00:00 23.3 14 Noroeste 37 Norte 0 -- -- 31
2020-03-09 15:00:00 22 18 Noroeste 33 Oeste 0 -- -- 34
2020-03-09 14:00:00 20.5 14 Noroeste 34 Norte 0 -- -- 41
2020-03-09 13:00:00 18.5 13 Noroeste 24 Norte 0 -- -- 46
2020-03-09 12:00:00 17.4 12 Noroeste 30 Noroeste 0 -- -- 50
2020-03-09 11:00:00 16 14 Noroeste 33 Noroeste 0 -- -- 52
2020-03-09 10:00:00 14.8 18 Noroeste 32 Noroeste 0 -- -- 56
2020-03-09 09:00:00 13.5 10 Noroeste 24 Norte 0 -- -- 60
2020-03-09 08:00:00 12.7 12 Noroeste 22 Noroeste 0 -- -- 58
2020-03-09 07:00:00 12.6 8 Noroeste 23 Norte 0 -- -- 59
2020-03-09 06:00:00 13.3 13 Noroeste 34 Norte 0 -- -- 56
2020-03-09 05:00:00 14 13 Noroeste 26 Norte 0 -- -- 51
2020-03-09 04:00:00 14 10 Oeste 17 Noroeste 0 -- -- 50
2020-03-09 03:00:00 14.8 10 Noroeste 22 Oeste 0 -- -- 47
2020-03-09 02:00:00 15.6 10 Noroeste 23 Norte 0 -- -- 45
2020-03-09 01:00:00 15.3 9 Noroeste 17 Noroeste 0 -- -- 46
2020-03-09 00:00:00 14.6 10 Noroeste 17 Noroeste 0 -- -- 45